sensor_id;sensor_type;location;lat;lon;timestamp;pressure;altitude;pressure_sealevel;temperature;humidity
64025;BME280;50266;57.446;26.936;2023-02-12T00:00:05;100132.2;;;-6.66;100.0
64025;BME280;50266;57.446;26.936;2023-02-12T00:01:06;100134.95;;;-6.6;100.0
64025;BME280;50266;57.446;26.936;2023-02-12T00:02:03;100138.2;;;-6.63;100.0
64025;BME280;50266;57.446;26.936;2023-02-12T00:03:03;100135.02;;;-6.7;100.0
64025;BME280;50266;57.446;26.936;2023-02-12T00:04:03;100141.77;;;-6.68;100.0
64025;BME280;50266;57.446;26.936;2023-02-12T00:05:03;100146.9;;;-6.67;100.0
64025;BME280;50266;57.446;26.936;2023-02-12T00:06:03;100149.71;;;-6.52;100.0
64025;BME280;50266;57.446;26.936;2023-02-12T00:07:03;100149.34;;;-6.56;100.0
64025;BME280;50266;57.446;26.936;2023-02-12T00:08:03;100145.31;;;-6.69;100.0
64025;BME280;50266;57.446;26.936;2023-02-12T00:09:03;100148.83;;;-6.71;100.0
64025;BME280;50266;57.446;26.936;2023-02-12T00:10:03;100145.67;;;-6.7;100.0
64025;BME280;50266;57.446;26.936;2023-02-12T00:11:07;100142.97;;;-6.71;100.0
64025;BME280;50266;57.446;26.936;2023-02-12T00:12:03;100147.55;;;-6.7;100.0
64025;BME280;50266;57.446;26.936;2023-02-12T00:13:03;100142.23;;;-6.59;100.0
64025;BME280;50266;57.446;26.936;2023-02-12T00:14:03;100146.31;;;-6.71;100.0
64025;BME280;50266;57.446;26.936;2023-02-12T00:15:03;100149.31;;;-6.5;100.0
64025;BME280;50266;57.446;26.936;2023-02-12T00:16:04;100146.66;;;-6.51;100.0
64025;BME280;50266;57.446;26.936;2023-02-12T00:17:03;100151.7;;;-6.56;100.0
64025;BME280;50266;57.446;26.936;2023-02-12T00:18:03;100151.59;;;-6.66;100.0
64025;BME280;50266;57.446;26.936;2023-02-12T00:19:03;100152.36;;;-6.65;100.0
64025;BME280;50266;57.446;26.936;2023-02-12T00:20:03;100153.41;;;-6.67;100.0
64025;BME280;50266;57.446;26.936;2023-02-12T00:21:03;100156.46;;;-6.63;100.0
64025;BME280;50266;57.446;26.936;2023-02-12T00:22:03;100156.27;;;-6.61;100.0
64025;BME280;50266;57.446;26.936;2023-02-12T00:23:04;100154.93;;;-6.56;100.0
64025;BME280;50266;57.446;26.936;2023-02-12T00:24:03;100150.34;;;-6.67;100.0
64025;BME280;50266;57.446;26.936;2023-02-12T00:25:04;100159.2;;;-6.63;100.0
64025;BME280;50266;57.446;26.936;2023-02-12T00:26:04;100157.91;;;-6.63;100.0
64025;BME280;50266;57.446;26.936;2023-02-12T00:27:03;100154.14;;;-6.63;100.0
64025;BME280;50266;57.446;26.936;2023-02-12T00:28:03;100154.98;;;-6.6;100.0
64025;BME280;50266;57.446;26.936;2023-02-12T00:29:03;100158.33;;;-6.73;100.0
64025;BME280;50266;57.446;26.936;2023-02-12T00:30:04;100163.64;;;-6.61;100.0
64025;BME280;50266;57.446;26.936;2023-02-12T00:31:07;100170.17;;;-6.6;100.0
64025;BME280;50266;57.446;26.936;2023-02-12T00:32:03;100174.95;;;-6.75;100.0
64025;BME280;50266;57.446;26.936;2023-02-12T00:33:03;100173.94;;;-6.81;100.0
64025;BME280;50266;57.446;26.936;2023-02-12T00:34:03;100174.24;;;-6.79;100.0
64025;BME280;50266;57.446;26.936;2023-02-12T00:35:03;100179.89;;;-6.79;100.0
64025;BME280;50266;57.446;26.936;2023-02-12T00:36:04;100186.14;;;-6.83;100.0
64025;BME280;50266;57.446;26.936;2023-02-12T00:37:03;100180.51;;;-6.81;100.0
64025;BME280;50266;57.446;26.936;2023-02-12T00:38:03;100185.2;;;-6.84;100.0
64025;BME280;50266;57.446;26.936;2023-02-12T00:39:03;100182.66;;;-6.81;100.0
64025;BME280;50266;57.446;26.936;2023-02-12T00:40:04;100182.97;;;-6.79;100.0
64025;BME280;50266;57.446;26.936;2023-02-12T00:41:04;100181.48;;;-6.84;100.0
64025;BME280;50266;57.446;26.936;2023-02-12T00:42:03;100179.12;;;-6.8;100.0
64025;BME280;50266;57.446;26.936;2023-02-12T00:43:03;100182.25;;;-6.76;100.0
64025;BME280;50266;57.446;26.936;2023-02-12T00:44:03;100176.41;;;-6.61;100.0
64025;BME280;50266;57.446;26.936;2023-02-12T00:45:04;100186.19;;;-6.72;100.0
64025;BME280;50266;57.446;26.936;2023-02-12T00:46:04;100184.91;;;-6.78;100.0
64025;BME280;50266;57.446;26.936;2023-02-12T00:47:04;100187.38;;;-6.76;100.0
64025;BME280;50266;57.446;26.936;2023-02-12T00:48:04;100185.72;;;-6.81;100.0
64025;BME280;50266;57.446;26.936;2023-02-12T00:49:03;100191.44;;;-6.84;100.0
64025;BME280;50266;57.446;26.936;2023-02-12T00:50:04;100192.63;;;-6.96;100.0
64025;BME280;50266;57.446;26.936;2023-02-12T00:51:04;100195.43;;;-6.86;100.0
64025;BME280;50266;57.446;26.936;2023-02-12T00:52:04;100197.5;;;-6.88;100.0
64025;BME280;50266;57.446;26.936;2023-02-12T00:53:04;100194.89;;;-6.84;100.0
64025;BME280;50266;57.446;26.936;2023-02-12T00:54:04;100193.48;;;-6.87;100.0
64025;BME280;50266;57.446;26.936;2023-02-12T00:55:04;100197.43;;;-6.83;100.0
64025;BME280;50266;57.446;26.936;2023-02-12T00:56:04;100199.43;;;-6.8;100.0
64025;BME280;50266;57.446;26.936;2023-02-12T00:57:04;100204.8;;;-6.84;100.0
64025;BME280;50266;57.446;26.936;2023-02-12T00:58:04;100198.91;;;-6.79;100.0
64025;BME280;50266;57.446;26.936;2023-02-12T00:59:04;100204.69;;;-6.93;100.0
64025;BME280;50266;57.446;26.936;2023-02-12T01:00:04;100200.93;;;-6.83;100.0
64025;BME280;50266;57.446;26.936;2023-02-12T01:01:04;100202.83;;;-6.95;100.0
64025;BME280;50266;57.446;26.936;2023-02-12T01:02:04;100201.85;;;-6.98;100.0
64025;BME280;50266;57.446;26.936;2023-02-12T01:03:04;100200.66;;;-6.99;100.0
64025;BME280;50266;57.446;26.936;2023-02-12T01:04:04;100208.23;;;-7.03;100.0
64025;BME280;50266;57.446;26.936;2023-02-12T01:05:04;100204.53;;;-6.92;100.0
64025;BME280;50266;57.446;26.936;2023-02-12T01:06:04;100204.5;;;-6.91;100.0
64025;BME280;50266;57.446;26.936;2023-02-12T01:07:04;100207.61;;;-6.99;100.0
64025;BME280;50266;57.446;26.936;2023-02-12T01:08:04;100207.81;;;-6.96;100.0
64025;BME280;50266;57.446;26.936;2023-02-12T01:09:04;100211.97;;;-6.98;100.0
64025;BME280;50266;57.446;26.936;2023-02-12T01:10:04;100209.8;;;-7.08;100.0
64025;BME280;50266;57.446;26.936;2023-02-12T01:11:04;100214.04;;;-7.12;100.0
64025;BME280;50266;57.446;26.936;2023-02-12T01:12:04;100212.91;;;-7.0;100.0
64025;BME280;50266;57.446;26.936;2023-02-12T01:13:04;100215.3;;;-6.99;100.0
64025;BME280;50266;57.446;26.936;2023-02-12T01:14:04;100224.27;;;-7.15;100.0
64025;BME280;50266;57.446;26.936;2023-02-12T01:15:04;100217.2;;;-7.25;100.0
64025;BME280;50266;57.446;26.936;2023-02-12T01:16:05;100217.34;;;-7.2;100.0
64025;BME280;50266;57.446;26.936;2023-02-12T01:17:06;100225.09;;;-7.2;100.0
64025;BME280;50266;57.446;26.936;2023-02-12T01:18:04;100218.33;;;-7.22;100.0
64025;BME280;50266;57.446;26.936;2023-02-12T01:19:04;100219.93;;;-7.28;100.0
64025;BME280;50266;57.446;26.936;2023-02-12T01:20:05;100224.26;;;-7.24;100.0
64025;BME280;50266;57.446;26.936;2023-02-12T01:21:08;100226.34;;;-7.23;100.0
64025;BME280;50266;57.446;26.936;2023-02-12T01:22:04;100223.22;;;-7.22;100.0
64025;BME280;50266;57.446;26.936;2023-02-12T01:23:04;100231.97;;;-7.23;100.0
64025;BME280;50266;57.446;26.936;2023-02-12T01:24:04;100224.69;;;-7.18;100.0
64025;BME280;50266;57.446;26.936;2023-02-12T01:25:04;100229.12;;;-7.31;100.0
64025;BME280;50266;57.446;26.936;2023-02-12T01:26:04;100228.89;;;-7.24;100.0
64025;BME280;50266;57.446;26.936;2023-02-12T01:27:04;100232.5;;;-7.32;100.0
64025;BME280;50266;57.446;26.936;2023-02-12T01:28:04;100232.45;;;-7.46;100.0
64025;BME280;50266;57.446;26.936;2023-02-12T01:29:05;100231.33;;;-7.46;100.0
64025;BME280;50266;57.446;26.936;2023-02-12T01:30:05;100233.67;;;-7.25;100.0
64025;BME280;50266;57.446;26.936;2023-02-12T01:31:08;100228.43;;;-7.23;100.0
64025;BME280;50266;57.446;26.936;2023-02-12T01:32:04;100235.28;;;-7.25;100.0
64025;BME280;50266;57.446;26.936;2023-02-12T01:33:04;100233.84;;;-7.31;100.0
64025;BME280;50266;57.446;26.936;2023-02-12T01:34:05;100238.34;;;-7.42;100.0
64025;BME280;50266;57.446;26.936;2023-02-12T01:35:06;100240.16;;;-7.27;100.0
64025;BME280;50266;57.446;26.936;2023-02-12T01:36:05;100242.58;;;-7.4;100.0
64025;BME280;50266;57.446;26.936;2023-02-12T01:37:05;100245.01;;;-7.39;100.0
64025;BME280;50266;57.446;26.936;2023-02-12T01:38:05;100248.8;;;-7.43;100.0
64025;BME280;50266;57.446;26.936;2023-02-12T01:39:05;100249.84;;;-7.34;100.0
64025;BME280;50266;57.446;26.936;2023-02-12T01:40:05;100255.45;;;-7.35;100.0
64025;BME280;50266;57.446;26.936;2023-02-12T01:41:05;100260.52;;;-7.35;100.0
64025;BME280;50266;57.446;26.936;2023-02-12T01:42:05;100260.92;;;-7.42;100.0
64025;BME280;50266;57.446;26.936;2023-02-12T01:43:05;100266.43;;;-7.44;100.0
64025;BME280;50266;57.446;26.936;2023-02-12T01:44:13;100267.28;;;-7.25;100.0
64025;BME280;50266;57.446;26.936;2023-02-12T01:46:13;100269.76;;;-7.38;100.0
64025;BME280;50266;57.446;26.936;2023-02-12T01:47:16;100273.56;;;-7.45;100.0
64025;BME280;50266;57.446;26.936;2023-02-12T01:48:14;100275.25;;;-7.47;100.0
64025;BME280;50266;57.446;26.936;2023-02-12T01:49:18;100279.29;;;-7.43;100.0
64025;BME280;50266;57.446;26.936;2023-02-12T01:50:17;100276.31;;;-7.41;100.0
64025;BME280;50266;57.446;26.936;2023-02-12T01:51:17;100279.61;;;-7.33;100.0
64025;BME280;50266;57.446;26.936;2023-02-12T01:52:22;100282.45;;;-7.36;100.0
64025;BME280;50266;57.446;26.936;2023-02-12T01:53:19;100279.12;;;-7.38;100.0
64025;BME280;50266;57.446;26.936;2023-02-12T01:54:19;100283.95;;;-7.3;100.0
64025;BME280;50266;57.446;26.936;2023-02-12T01:55:19;100289.12;;;-7.23;100.0
64025;BME280;50266;57.446;26.936;2023-02-12T01:56:19;100287.72;;;-7.08;100.0
64025;BME280;50266;57.446;26.936;2023-02-12T01:57:19;100289.54;;;-7.12;100.0
64025;BME280;50266;57.446;26.936;2023-02-12T01:58:19;100296.36;;;-7.21;100.0
64025;BME280;50266;57.446;26.936;2023-02-12T01:59:19;100293.11;;;-7.25;100.0
64025;BME280;50266;57.446;26.936;2023-02-12T02:00:20;100296.94;;;-7.25;100.0
64025;BME280;50266;57.446;26.936;2023-02-12T02:01:23;100297.56;;;-7.15;100.0
64025;BME280;50266;57.446;26.936;2023-02-12T02:02:21;100295.84;;;-7.14;100.0
64025;BME280;50266;57.446;26.936;2023-02-12T02:03:21;100300.59;;;-7.03;100.0
64025;BME280;50266;57.446;26.936;2023-02-12T02:04:23;100300.41;;;-6.92;100.0
64025;BME280;50266;57.446;26.936;2023-02-12T02:05:26;100305.24;;;-6.89;100.0
64025;BME280;50266;57.446;26.936;2023-02-12T02:06:27;100301.58;;;-6.9;100.0
64025;BME280;50266;57.446;26.936;2023-02-12T02:07:26;100304.7;;;-6.84;100.0
64025;BME280;50266;57.446;26.936;2023-02-12T02:08:26;100307.44;;;-6.79;100.0
64025;BME280;50266;57.446;26.936;2023-02-12T02:09:26;100308.59;;;-6.89;100.0
64025;BME280;50266;57.446;26.936;2023-02-12T02:10:26;100308.84;;;-6.76;100.0
64025;BME280;50266;57.446;26.936;2023-02-12T02:11:26;100306.19;;;-6.83;100.0
64025;BME280;50266;57.446;26.936;2023-02-12T02:12:26;100303.59;;;-6.6;100.0
64025;BME280;50266;57.446;26.936;2023-02-12T02:13:26;100305.97;;;-6.68;100.0
64025;BME280;50266;57.446;26.936;2023-02-12T02:14:26;100305.27;;;-6.71;100.0
64025;BME280;50266;57.446;26.936;2023-02-12T02:15:26;100310.45;;;-6.52;100.0
64025;BME280;50266;57.446;26.936;2023-02-12T02:16:26;100312.83;;;-6.57;100.0
64025;BME280;50266;57.446;26.936;2023-02-12T02:18:37;100311.58;;;-6.62;100.0
64025;BME280;50266;57.446;26.936;2023-02-12T02:19:44;100313.24;;;-6.59;100.0
64025;BME280;50266;57.446;26.936;2023-02-12T02:22:40;100320.73;;;-6.67;100.0
64025;BME280;50266;57.446;26.936;2023-02-12T02:23:55;100314.05;;;-6.64;100.0
64025;BME280;50266;57.446;26.936;2023-02-12T02:24:47;100311.19;;;-6.65;100.0
64025;BME280;50266;57.446;26.936;2023-02-12T02:29:10;100324.91;;;-6.63;100.0
64025;BME280;50266;57.446;26.936;2023-02-12T02:30:11;100324.84;;;-6.58;100.0
64025;BME280;50266;57.446;26.936;2023-02-12T02:31:03;100328.21;;;-6.64;100.0
64025;BME280;50266;57.446;26.936;2023-02-12T02:32:07;100324.2;;;-6.57;100.0
64025;BME280;50266;57.446;26.936;2023-02-12T02:33:12;100322.81;;;-6.5;100.0
64025;BME280;50266;57.446;26.936;2023-02-12T02:35:24;100320.49;;;-6.54;100.0
64025;BME280;50266;57.446;26.936;2023-02-12T02:37:23;100312.89;;;-6.54;100.0
64025;BME280;50266;57.446;26.936;2023-02-12T02:38:23;100313.47;;;-6.52;100.0
64025;BME280;50266;57.446;26.936;2023-02-12T02:39:24;100308.92;;;-6.53;100.0
64025;BME280;50266;57.446;26.936;2023-02-12T02:40:23;100313.11;;;-6.51;100.0
64025;BME280;50266;57.446;26.936;2023-02-12T02:42:29;100311.12;;;-6.53;100.0
64025;BME280;50266;57.446;26.936;2023-02-12T02:43:32;100305.04;;;-6.53;100.0
64025;BME280;50266;57.446;26.936;2023-02-12T02:44:32;100302.62;;;-6.56;100.0
64025;BME280;50266;57.446;26.936;2023-02-12T02:45:35;100302.2;;;-6.52;100.0
64025;BME280;50266;57.446;26.936;2023-02-12T02:46:34;100307.95;;;-6.53;100.0
64025;BME280;50266;57.446;26.936;2023-02-12T02:47:40;100308.32;;;-6.5;100.0
64025;BME280;50266;57.446;26.936;2023-02-12T02:48:40;100320.86;;;-6.51;100.0
64025;BME280;50266;57.446;26.936;2023-02-12T02:49:43;100317.53;;;-6.47;100.0
64025;BME280;50266;57.446;26.936;2023-02-12T02:50:43;100315.72;;;-6.46;100.0
64025;BME280;50266;57.446;26.936;2023-02-12T02:51:42;100323.73;;;-6.46;100.0
64025;BME280;50266;57.446;26.936;2023-02-12T02:52:47;100327.85;;;-6.48;100.0
64025;BME280;50266;57.446;26.936;2023-02-12T02:53:46;100328.0;;;-6.49;100.0
64025;BME280;50266;57.446;26.936;2023-02-12T02:54:46;100330.2;;;-6.5;100.0
64025;BME280;50266;57.446;26.936;2023-02-12T02:55:46;100332.91;;;-6.49;100.0
64025;BME280;50266;57.446;26.936;2023-02-12T02:56:45;100326.89;;;-6.51;100.0
64025;BME280;50266;57.446;26.936;2023-02-12T02:57:52;100329.58;;;-6.51;100.0
64025;BME280;50266;57.446;26.936;2023-02-12T02:58:46;100332.5;;;-6.57;100.0
64025;BME280;50266;57.446;26.936;2023-02-12T02:59:46;100329.69;;;-6.51;100.0
64025;BME280;50266;57.446;26.936;2023-02-12T03:00:50;100327.34;;;-6.5;100.0
64025;BME280;50266;57.446;26.936;2023-02-12T03:01:53;100331.07;;;-6.52;100.0
64025;BME280;50266;57.446;26.936;2023-02-12T03:02:53;100333.06;;;-6.53;100.0
64025;BME280;50266;57.446;26.936;2023-02-12T03:03:52;100332.69;;;-6.52;100.0
64025;BME280;50266;57.446;26.936;2023-02-12T03:04:53;100337.23;;;-6.51;100.0
64025;BME280;50266;57.446;26.936;2023-02-12T03:05:52;100334.88;;;-6.53;100.0
64025;BME280;50266;57.446;26.936;2023-02-12T03:06:56;100335.94;;;-6.54;100.0
64025;BME280;50266;57.446;26.936;2023-02-12T03:07:55;100336.28;;;-6.5;100.0
64025;BME280;50266;57.446;26.936;2023-02-12T03:08:55;100343.27;;;-6.54;100.0
64025;BME280;50266;57.446;26.936;2023-02-12T03:09:58;100342.13;;;-6.54;100.0
64025;BME280;50266;57.446;26.936;2023-02-12T03:12:00;100345.59;;;-6.54;100.0
64025;BME280;50266;57.446;26.936;2023-02-12T03:13:06;100346.88;;;-6.54;100.0
64025;BME280;50266;57.446;26.936;2023-02-12T03:15:09;100352.34;;;-6.53;100.0
64025;BME280;50266;57.446;26.936;2023-02-12T03:16:08;100354.41;;;-6.54;100.0
64025;BME280;50266;57.446;26.936;2023-02-12T03:17:08;100356.64;;;-6.53;100.0
64025;BME280;50266;57.446;26.936;2023-02-12T03:18:07;100357.41;;;-6.56;100.0
64025;BME280;50266;57.446;26.936;2023-02-12T03:19:15;100357.53;;;-6.55;100.0
64025;BME280;50266;57.446;26.936;2023-02-12T03:20:13;100359.98;;;-6.56;100.0
64025;BME280;50266;57.446;26.936;2023-02-12T03:21:13;100360.03;;;-6.57;100.0
64025;BME280;50266;57.446;26.936;2023-02-12T03:22:30;100371.86;;;-6.54;100.0
64025;BME280;50266;57.446;26.936;2023-02-12T03:23:16;100370.14;;;-6.55;100.0
64025;BME280;50266;57.446;26.936;2023-02-12T03:24:25;100370.73;;;-6.54;100.0
64025;BME280;50266;57.446;26.936;2023-02-12T03:25:24;100371.3;;;-6.53;100.0
64025;BME280;50266;57.446;26.936;2023-02-12T03:26:22;100368.88;;;-6.52;100.0
64025;BME280;50266;57.446;26.936;2023-02-12T03:27:31;100375.4;;;-6.53;100.0
64025;BME280;50266;57.446;26.936;2023-02-12T03:28:31;100378.42;;;-6.52;100.0
64025;BME280;50266;57.446;26.936;2023-02-12T03:29:28;100380.05;;;-6.52;100.0
64025;BME280;50266;57.446;26.936;2023-02-12T03:30:31;100381.18;;;-6.52;100.0
64025;BME280;50266;57.446;26.936;2023-02-12T03:33:47;100388.88;;;-6.55;100.0
64025;BME280;50266;57.446;26.936;2023-02-12T03:34:45;100396.7;;;-6.54;100.0
64025;BME280;50266;57.446;26.936;2023-02-12T03:37:49;100394.67;;;-6.53;100.0
64025;BME280;50266;57.446;26.936;2023-02-12T03:38:48;100393.03;;;-6.54;100.0
64025;BME280;50266;57.446;26.936;2023-02-12T03:40:59;100396.16;;;-6.55;100.0
64025;BME280;50266;57.446;26.936;2023-02-12T03:41:56;100401.58;;;-6.53;100.0
64025;BME280;50266;57.446;26.936;2023-02-12T03:43:06;100399.58;;;-6.53;100.0
64025;BME280;50266;57.446;26.936;2023-02-12T03:45:07;100396.48;;;-6.51;100.0
64025;BME280;50266;57.446;26.936;2023-02-12T03:46:16;100399.27;;;-6.49;100.0
64025;BME280;50266;57.446;26.936;2023-02-12T03:49:22;100395.3;;;-6.48;100.0
64025;BME280;50266;57.446;26.936;2023-02-12T03:50:33;100390.39;;;-6.48;100.0
64025;BME280;50266;57.446;26.936;2023-02-12T03:51:24;100393.27;;;-6.51;100.0
64025;BME280;50266;57.446;26.936;2023-02-12T03:52:24;100393.88;;;-6.5;100.0
64025;BME280;50266;57.446;26.936;2023-02-12T03:53:24;100395.41;;;-6.51;100.0
64025;BME280;50266;57.446;26.936;2023-02-12T03:54:24;100394.96;;;-6.52;100.0
64025;BME280;50266;57.446;26.936;2023-02-12T03:55:24;100393.19;;;-6.52;100.0
64025;BME280;50266;57.446;26.936;2023-02-12T03:57:30;100397.12;;;-6.55;100.0
64025;BME280;50266;57.446;26.936;2023-02-12T03:58:29;100391.66;;;-6.56;100.0
64025;BME280;50266;57.446;26.936;2023-02-12T03:59:29;100395.16;;;-6.53;100.0
64025;BME280;50266;57.446;26.936;2023-02-12T04:00:29;100395.03;;;-6.54;100.0
64025;BME280;50266;57.446;26.936;2023-02-12T04:01:29;100393.27;;;-6.56;100.0
64025;BME280;50266;57.446;26.936;2023-02-12T04:02:29;100394.73;;;-6.56;100.0
64025;BME280;50266;57.446;26.936;2023-02-12T04:03:29;100397.16;;;-6.59;100.0
64025;BME280;50266;57.446;26.936;2023-02-12T04:04:29;100392.75;;;-6.58;100.0
64025;BME280;50266;57.446;26.936;2023-02-12T04:05:29;100393.15;;;-6.6;100.0
64025;BME280;50266;57.446;26.936;2023-02-12T04:06:29;100394.8;;;-6.59;100.0
64025;BME280;50266;57.446;26.936;2023-02-12T04:07:29;100393.34;;;-6.55;100.0
64025;BME280;50266;57.446;26.936;2023-02-12T04:08:29;100400.44;;;-6.59;100.0
64025;BME280;50266;57.446;26.936;2023-02-12T04:09:29;100395.73;;;-6.6;100.0
64025;BME280;50266;57.446;26.936;2023-02-12T04:10:32;100404.39;;;-6.65;100.0
64025;BME280;50266;57.446;26.936;2023-02-12T04:12:39;100399.05;;;-6.61;100.0
64025;BME280;50266;57.446;26.936;2023-02-12T04:14:53;100404.89;;;-6.6;100.0
64025;BME280;50266;57.446;26.936;2023-02-12T04:17:55;100408.8;;;-6.58;100.0
64025;BME280;50266;57.446;26.936;2023-02-12T04:18:49;100411.99;;;-6.61;100.0
64025;BME280;50266;57.446;26.936;2023-02-12T04:22:03;100418.09;;;-6.54;100.0
64025;BME280;50266;57.446;26.936;2023-02-12T04:23:16;100420.82;;;-6.58;100.0
64025;BME280;50266;57.446;26.936;2023-02-12T04:24:13;100422.44;;;-6.58;100.0
64025;BME280;50266;57.446;26.936;2023-02-12T04:27:10;100432.06;;;-6.58;100.0
64025;BME280;50266;57.446;26.936;2023-02-12T04:30:20;100437.89;;;-6.58;100.0
64025;BME280;50266;57.446;26.936;2023-02-12T04:31:23;100438.8;;;-6.58;100.0
64025;BME280;50266;57.446;26.936;2023-02-12T04:32:40;100445.8;;;-6.58;100.0
64025;BME280;50266;57.446;26.936;2023-02-12T04:33:23;100450.12;;;-6.58;100.0
64025;BME280;50266;57.446;26.936;2023-02-12T04:34:29;100453.7;;;-6.59;100.0
64025;BME280;50266;57.446;26.936;2023-02-12T04:36:32;100459.1;;;-6.59;100.0
64025;BME280;50266;57.446;26.936;2023-02-12T04:37:36;100453.8;;;-6.57;100.0
64025;BME280;50266;57.446;26.936;2023-02-12T04:38:35;100455.69;;;-6.57;100.0
64025;BME280;50266;57.446;26.936;2023-02-12T04:39:35;100459.44;;;-6.58;100.0
64025;BME280;50266;57.446;26.936;2023-02-12T04:40:34;100461.78;;;-6.56;100.0
64025;BME280;50266;57.446;26.936;2023-02-12T04:41:34;100460.52;;;-6.55;100.0
64025;BME280;50266;57.446;26.936;2023-02-12T04:42:43;100459.55;;;-6.55;100.0
64025;BME280;50266;57.446;26.936;2023-02-12T04:43:35;100458.7;;;-6.57;100.0
64025;BME280;50266;57.446;26.936;2023-02-12T04:44:39;100460.77;;;-6.59;100.0
64025;BME280;50266;57.446;26.936;2023-02-12T04:45:36;100456.18;;;-6.59;100.0
64025;BME280;50266;57.446;26.936;2023-02-12T04:46:36;100456.56;;;-6.59;100.0
64025;BME280;50266;57.446;26.936;2023-02-12T04:47:36;100457.0;;;-6.59;100.0
64025;BME280;50266;57.446;26.936;2023-02-12T04:48:36;100456.67;;;-6.62;100.0
64025;BME280;50266;57.446;26.936;2023-02-12T04:49:36;100460.89;;;-6.64;100.0
64025;BME280;50266;57.446;26.936;2023-02-12T04:50:37;100459.95;;;-6.62;100.0
64025;BME280;50266;57.446;26.936;2023-02-12T04:51:36;100457.52;;;-6.63;100.0
64025;BME280;50266;57.446;26.936;2023-02-12T04:52:36;100462.61;;;-6.61;100.0
64025;BME280;50266;57.446;26.936;2023-02-12T04:53:36;100463.34;;;-6.6;100.0
64025;BME280;50266;57.446;26.936;2023-02-12T04:54:36;100468.28;;;-6.6;100.0
64025;BME280;50266;57.446;26.936;2023-02-12T04:55:36;100464.56;;;-6.6;100.0
64025;BME280;50266;57.446;26.936;2023-02-12T04:56:36;100468.12;;;-6.63;100.0
64025;BME280;50266;57.446;26.936;2023-02-12T04:57:36;100468.04;;;-6.59;100.0
64025;BME280;50266;57.446;26.936;2023-02-12T04:58:36;100472.07;;;-6.62;100.0
64025;BME280;50266;57.446;26.936;2023-02-12T04:59:36;100471.13;;;-6.63;100.0
64025;BME280;50266;57.446;26.936;2023-02-12T05:00:36;100476.33;;;-6.59;100.0
64025;BME280;50266;57.446;26.936;2023-02-12T05:01:36;100472.5;;;-6.59;100.0
64025;BME280;50266;57.446;26.936;2023-02-12T05:02:36;100473.48;;;-6.61;100.0
64025;BME280;50266;57.446;26.936;2023-02-12T05:03:36;100478.47;;;-6.63;100.0
64025;BME280;50266;57.446;26.936;2023-02-12T05:04:36;100478.74;;;-6.62;100.0
64025;BME280;50266;57.446;26.936;2023-02-12T05:05:36;100478.58;;;-6.62;100.0
64025;BME280;50266;57.446;26.936;2023-02-12T05:06:36;100474.09;;;-6.63;100.0
64025;BME280;50266;57.446;26.936;2023-02-12T05:07:36;100469.13;;;-6.65;100.0
64025;BME280;50266;57.446;26.936;2023-02-12T05:08:36;100477.47;;;-6.62;100.0
64025;BME280;50266;57.446;26.936;2023-02-12T05:09:36;100475.78;;;-6.6;100.0
64025;BME280;50266;57.446;26.936;2023-02-12T05:10:36;100476.03;;;-6.65;100.0
64025;BME280;50266;57.446;26.936;2023-02-12T05:11:36;100468.36;;;-6.66;100.0
64025;BME280;50266;57.446;26.936;2023-02-12T05:12:36;100465.66;;;-6.66;100.0
64025;BME280;50266;57.446;26.936;2023-02-12T05:13:36;100463.7;;;-6.67;100.0
64025;BME280;50266;57.446;26.936;2023-02-12T05:14:36;100459.72;;;-6.7;100.0
64025;BME280;50266;57.446;26.936;2023-02-12T05:15:39;100459.51;;;-6.67;100.0
64025;BME280;50266;57.446;26.936;2023-02-12T05:16:36;100464.84;;;-6.7;100.0
64025;BME280;50266;57.446;26.936;2023-02-12T05:17:36;100463.8;;;-6.68;100.0
64025;BME280;50266;57.446;26.936;2023-02-12T05:18:36;100468.24;;;-6.72;100.0
64025;BME280;50266;57.446;26.936;2023-02-12T05:19:36;100464.83;;;-6.73;100.0
64025;BME280;50266;57.446;26.936;2023-02-12T05:20:36;100460.77;;;-6.69;100.0
64025;BME280;50266;57.446;26.936;2023-02-12T05:21:36;100464.65;;;-6.69;100.0
64025;BME280;50266;57.446;26.936;2023-02-12T05:22:36;100463.73;;;-6.69;100.0
64025;BME280;50266;57.446;26.936;2023-02-12T05:23:37;100461.15;;;-6.71;100.0
64025;BME280;50266;57.446;26.936;2023-02-12T05:24:36;100467.32;;;-6.72;100.0
64025;BME280;50266;57.446;26.936;2023-02-12T05:25:36;100467.48;;;-6.72;100.0
64025;BME280;50266;57.446;26.936;2023-02-12T05:26:36;100466.85;;;-6.72;100.0
64025;BME280;50266;57.446;26.936;2023-02-12T05:27:36;100472.27;;;-6.73;100.0
64025;BME280;50266;57.446;26.936;2023-02-12T05:28:36;100471.36;;;-6.72;100.0
64025;BME280;50266;57.446;26.936;2023-02-12T05:29:36;100473.31;;;-6.74;100.0
64025;BME280;50266;57.446;26.936;2023-02-12T05:30:36;100480.41;;;-6.72;100.0
64025;BME280;50266;57.446;26.936;2023-02-12T05:31:36;100479.0;;;-6.75;100.0
64025;BME280;50266;57.446;26.936;2023-02-12T05:32:36;100482.22;;;-6.79;100.0
64025;BME280;50266;57.446;26.936;2023-02-12T05:33:36;100486.03;;;-6.79;100.0
64025;BME280;50266;57.446;26.936;2023-02-12T05:34:36;100488.95;;;-6.79;100.0
64025;BME280;50266;57.446;26.936;2023-02-12T05:35:36;100490.79;;;-6.81;100.0
64025;BME280;50266;57.446;26.936;2023-02-12T05:36:36;100493.84;;;-6.79;100.0
64025;BME280;50266;57.446;26.936;2023-02-12T05:37:36;100494.18;;;-6.81;100.0
64025;BME280;50266;57.446;26.936;2023-02-12T05:38:36;100490.06;;;-6.82;100.0
64025;BME280;50266;57.446;26.936;2023-02-12T05:39:37;100488.84;;;-6.84;100.0
64025;BME280;50266;57.446;26.936;2023-02-12T05:40:36;100486.54;;;-6.83;100.0
64025;BME280;50266;57.446;26.936;2023-02-12T05:41:36;100492.12;;;-6.85;100.0
64025;BME280;50266;57.446;26.936;2023-02-12T05:42:36;100493.81;;;-6.85;100.0
64025;BME280;50266;57.446;26.936;2023-02-12T05:43:36;100500.42;;;-6.86;100.0
64025;BME280;50266;57.446;26.936;2023-02-12T05:44:37;100493.84;;;-6.86;100.0
64025;BME280;50266;57.446;26.936;2023-02-12T05:45:36;100491.66;;;-6.87;100.0
64025;BME280;50266;57.446;26.936;2023-02-12T05:46:37;100490.66;;;-6.89;100.0